createdAt,value
2022-08-09T00:01:43.055Z,100.00
2022-08-09T00:04:06.132Z,100.00
2022-08-09T00:06:23.284Z,100.00
2022-08-09T00:08:31.966Z,100.00
2022-08-09T00:10:34.597Z,100.00
2022-08-09T00:12:37.381Z,100.00
2022-08-09T00:14:40.106Z,100.00
2022-08-09T00:16:47.021Z,100.00
2022-08-09T00:18:49.259Z,100.00
2022-08-09T00:20:50.791Z,100.00
2022-08-09T00:22:52.864Z,100.00
2022-08-09T00:24:55.994Z,100.00
2022-08-09T00:26:57.637Z,100.00
2022-08-09T00:29:01.627Z,100.00
2022-08-09T00:31:30.639Z,100.00
2022-08-09T00:33:32.805Z,100.00
2022-08-09T00:35:46.406Z,100.00
2022-08-09T00:37:48.820Z,100.00
2022-08-09T00:40:09.471Z,100.00
2022-08-09T00:44:14.998Z,100.00
2022-08-09T00:44:35.515Z,100.00
2022-08-09T00:46:57.232Z,100.00
2022-08-09T00:49:00.938Z,100.00
2022-08-09T00:51:03.607Z,100.00
2022-08-09T00:53:13.558Z,100.00
2022-08-09T00:56:03.268Z,100.00
2022-08-09T00:57:39.839Z,100.00
2022-08-09T00:59:46.678Z,100.00
2022-08-09T01:01:48.888Z,100.00
2022-08-09T01:03:54.962Z,100.00
2022-08-09T01:06:03.921Z,100.00
2022-08-09T01:08:26.762Z,100.00
2022-08-09T01:10:30.917Z,100.00
2022-08-09T01:12:35.226Z,100.00
2022-08-09T01:14:39.497Z,100.00
2022-08-09T01:16:47.269Z,100.00
2022-08-09T01:19:04.569Z,100.00
2022-08-09T01:21:13.496Z,100.00
2022-08-09T01:24:03.160Z,100.00
2022-08-09T01:25:52.323Z,100.00
2022-08-09T01:27:57.972Z,100.00
2022-08-09T01:30:00.726Z,100.00
2022-08-09T01:32:32.513Z,100.00
2022-08-09T01:34:25.447Z,100.00
2022-08-09T01:36:27.660Z,100.00
2022-08-09T01:38:29.877Z,100.00
2022-08-09T01:40:32.067Z,100.00
2022-08-09T01:42:34.457Z,100.00
2022-08-09T01:44:38.519Z,100.00
2022-08-09T01:46:40.813Z,100.00
2022-08-09T01:48:44.778Z,100.00
2022-08-09T01:50:54.989Z,100.00
2022-08-09T01:52:56.982Z,100.00
2022-08-09T01:54:58.529Z,100.00
2022-08-09T01:57:04.227Z,100.00
2022-08-09T01:59:06.735Z,100.00
2022-08-09T02:01:10.191Z,100.00
2022-08-09T02:03:20.298Z,100.00
2022-08-09T02:05:38.053Z,100.00
2022-08-09T02:08:40.802Z,100.00
2022-08-09T02:10:09.928Z,100.00
2022-08-09T02:12:17.965Z,100.00
2022-08-09T02:14:26.254Z,100.00
2022-08-09T02:16:33.767Z,100.00
2022-08-09T02:18:51.036Z,100.00
2022-08-09T02:20:55.365Z,100.00
2022-08-09T02:23:00.084Z,100.00
2022-08-09T02:25:02.129Z,100.00
2022-08-09T02:27:04.523Z,100.00
2022-08-09T02:29:09.459Z,100.00
2022-08-09T02:31:12.895Z,100.00
2022-08-09T02:33:18.811Z,100.00
2022-08-09T02:36:01.967Z,100.00
2022-08-09T02:37:46.751Z,100.00
2022-08-09T02:39:55.378Z,100.00
2022-08-09T02:42:04.484Z,100.00
2022-08-09T02:44:13.700Z,100.00
2022-08-09T02:46:21.430Z,100.00
2022-08-09T02:48:30.721Z,100.00
2022-08-09T02:50:33.751Z,100.00
2022-08-09T02:52:37.126Z,100.00
2022-08-09T02:54:54.071Z,100.00
2022-08-09T02:56:57.022Z,100.00
2022-08-09T02:58:59.773Z,100.00
2022-08-09T03:01:03.960Z,100.00
2022-08-09T03:03:06.322Z,100.00
2022-08-09T03:05:11.188Z,100.00
2022-08-09T03:07:18.393Z,100.00
2022-08-09T03:09:19.927Z,100.00
2022-08-09T03:12:04.877Z,100.00
2022-08-09T03:13:59.311Z,100.00
2022-08-09T03:16:06.353Z,100.00
2022-08-09T03:18:10.741Z,100.00
2022-08-09T03:20:13.850Z,100.00
2022-08-09T03:22:25.179Z,100.00
2022-08-09T03:24:52.436Z,100.00
2022-08-09T03:26:53.498Z,100.00
2022-08-09T03:28:55.278Z,100.00
2022-08-09T03:30:57.083Z,100.00
2022-08-09T03:32:58.818Z,100.00
2022-08-09T03:35:00.410Z,100.00
2022-08-09T03:37:54.691Z,100.00
2022-08-09T03:39:28.676Z,100.00
2022-08-09T03:41:48.360Z,100.00
2022-08-09T03:44:02.943Z,100.00
2022-08-09T03:46:20.516Z,100.00
2022-08-09T03:48:30.911Z,100.00
2022-08-09T03:50:33.457Z,100.00
2022-08-09T03:52:36.617Z,100.00
2022-08-09T03:54:40.380Z,100.00
2022-08-09T03:56:41.986Z,100.00
2022-08-09T03:58:43.611Z,100.00
2022-08-09T04:00:47.793Z,100.00
2022-08-09T04:02:52.653Z,100.00
2022-08-09T04:04:55.864Z,100.00
2022-08-09T04:06:57.375Z,100.00
2022-08-09T04:09:00.767Z,100.00
2022-08-09T04:11:02.308Z,100.00
2022-08-09T04:13:04.723Z,100.00
2022-08-09T04:15:17.287Z,100.00
2022-08-09T04:17:29.555Z,100.00
2022-08-09T04:19:42.906Z,100.00
2022-08-09T04:21:52.872Z,100.00
2022-08-09T04:23:57.716Z,100.00
2022-08-09T04:26:00.835Z,100.00
2022-08-09T04:28:03.546Z,100.00
2022-08-09T04:30:06.053Z,100.00
2022-08-09T04:32:07.607Z,100.00
2022-08-09T04:34:09.174Z,100.00
2022-08-09T04:36:11.437Z,100.00
2022-08-09T04:38:13.330Z,100.00
2022-08-09T04:40:19.033Z,100.00
2022-08-09T04:42:32.525Z,100.00
2022-08-09T04:44:37.278Z,100.00
2022-08-09T04:46:58.079Z,100.00
2022-08-09T04:49:00.737Z,100.00
2022-08-09T04:51:02.296Z,100.00
2022-08-09T04:53:04.938Z,100.00
2022-08-09T04:55:07.081Z,100.00
2022-08-09T04:57:12.316Z,100.00
2022-08-09T04:59:15.679Z,100.00
2022-08-09T05:01:18.737Z,100.00
2022-08-09T05:03:40.460Z,100.00
2022-08-09T05:05:52.191Z,100.00
2022-08-09T05:08:04.187Z,100.00
2022-08-09T05:10:06.249Z,100.00
2022-08-09T05:12:08.035Z,100.00
2022-08-09T05:14:10.244Z,100.00
2022-08-09T05:16:17.478Z,100.00
2022-08-09T05:18:39.214Z,100.00
2022-08-09T05:20:41.916Z,100.00
2022-08-09T05:23:55.124Z,100.00
2022-08-09T05:25:08.037Z,100.00
2022-08-09T05:27:10.679Z,100.00
2022-08-09T05:29:21.635Z,100.00
2022-08-09T05:31:44.021Z,100.00
2022-08-09T05:33:47.036Z,100.00
2022-08-09T05:35:50.887Z,100.00
2022-08-09T05:37:52.520Z,100.00
2022-08-09T05:39:54.098Z,100.00
2022-08-09T05:41:56.172Z,100.00
2022-08-09T05:44:03.240Z,100.00
2022-08-09T05:46:06.980Z,100.00
2022-08-09T05:48:09.917Z,100.00
2022-08-09T05:50:26.786Z,100.00
2022-08-09T05:52:33.257Z,100.00
2022-08-09T05:54:35.645Z,100.00
2022-08-09T05:56:55.326Z,100.00
2022-08-09T05:58:58.916Z,100.00
2022-08-09T06:01:00.613Z,100.00
2022-08-09T06:03:02.944Z,100.00
2022-08-09T06:05:07.276Z,100.00
2022-08-09T06:07:09.735Z,100.00
2022-08-09T06:09:40.777Z,100.00
2022-08-09T06:11:40.798Z,100.00
2022-08-09T06:13:54.461Z,100.00
2022-08-09T06:15:56.172Z,100.00
2022-08-09T06:17:57.695Z,100.00
2022-08-09T06:19:59.186Z,100.00
2022-08-09T06:22:02.353Z,100.00
2022-08-09T06:24:05.019Z,100.00
2022-08-09T06:26:06.642Z,100.00
2022-08-09T06:28:08.218Z,100.00
2022-08-09T06:30:10.634Z,100.00
2022-08-09T06:32:59.631Z,100.00
2022-08-09T06:34:37.342Z,100.00
2022-08-09T06:36:42.891Z,100.00
2022-08-09T06:38:50.147Z,100.00
2022-08-09T06:40:55.106Z,100.00
2022-08-09T06:42:56.781Z,100.00
2022-08-09T06:44:58.328Z,100.00
2022-08-09T06:47:00.022Z,100.00
2022-08-09T06:49:03.471Z,100.00
2022-08-09T06:51:05.122Z,100.00
2022-08-09T06:53:06.775Z,100.00
2022-08-09T06:55:12.831Z,100.00
2022-08-09T06:57:14.572Z,100.00
2022-08-09T07:00:51.173Z,100.00
2022-08-09T07:01:54.442Z,100.00
2022-08-09T07:04:00.818Z,100.00
2022-08-09T07:06:05.899Z,100.00
2022-08-09T07:08:07.438Z,100.00
2022-08-09T07:10:22.395Z,100.00
2022-08-09T07:12:38.602Z,100.00
2022-08-09T07:14:42.740Z,100.00
2022-08-09T07:16:48.130Z,100.00
2022-08-09T07:18:52.372Z,100.00
2022-08-09T07:20:54.530Z,100.00
2022-08-09T07:22:57.669Z,100.00
2022-08-09T07:25:00.226Z,100.00
2022-08-09T07:27:03.271Z,100.00
2022-08-09T07:29:13.524Z,100.00
2022-08-09T07:31:15.232Z,100.00
2022-08-09T07:33:17.512Z,100.00
2022-08-09T07:35:19.279Z,100.00
2022-08-09T07:37:22.041Z,100.00
2022-08-09T07:39:40.278Z,100.00
2022-08-09T07:41:43.313Z,100.00
2022-08-09T07:43:55.983Z,100.00
2022-08-09T07:46:01.930Z,100.00
2022-08-09T07:48:05.204Z,100.00
2022-08-09T07:50:08.561Z,100.00
2022-08-09T07:52:17.046Z,100.00
2022-08-09T07:54:28.062Z,100.00
2022-08-09T07:56:31.930Z,100.00
2022-08-09T07:58:33.491Z,100.00
2022-08-09T08:00:36.813Z,100.00
2022-08-09T08:02:57.737Z,100.00
2022-08-09T08:04:59.660Z,100.00
2022-08-09T08:07:09.286Z,100.00
2022-08-09T08:09:38.708Z,100.00
2022-08-09T08:12:11.196Z,100.00
2022-08-09T08:14:06.450Z,100.00
2022-08-09T08:16:29.509Z,99.72
2022-08-09T08:18:31.039Z,97.28
2022-08-09T08:20:33.503Z,93.52
2022-08-09T08:22:35.253Z,92.08
2022-08-09T08:24:40.747Z,89.82
2022-08-09T08:26:55.529Z,88.94
2022-08-09T08:28:58.109Z,90.32
2022-08-09T08:31:02.458Z,91.35
2022-08-09T08:33:12.014Z,89.20
2022-08-09T08:35:24.637Z,86.35
2022-08-09T08:37:41.467Z,82.93
2022-08-09T08:40:00.208Z,79.24
2022-08-09T08:42:01.847Z,83.62
2022-08-09T08:44:04.585Z,79.20
2022-08-09T08:46:32.230Z,78.26
2022-08-09T08:48:31.183Z,73.24
2022-08-09T08:50:32.782Z,72.43
2022-08-09T08:52:57.708Z,73.59
2022-08-09T08:54:58.147Z,68.67
2022-08-09T08:56:59.667Z,70.59
2022-08-09T08:59:01.349Z,68.81
2022-08-09T09:01:19.726Z,67.85
2022-08-09T09:03:33.159Z,64.98
2022-08-09T09:05:58.333Z,67.43
2022-08-09T09:08:02.257Z,69.73
2022-08-09T09:10:09.141Z,67.77
2022-08-09T09:12:16.547Z,65.56
2022-08-09T09:14:19.830Z,62.08
2022-08-09T09:16:30.913Z,63.16
2022-08-09T09:18:33.343Z,60.06
2022-08-09T09:20:35.403Z,60.78
2022-08-09T09:22:55.519Z,60.32
2022-08-09T09:26:03.356Z,62.75
2022-08-09T09:28:03.807Z,61.26
2022-08-09T09:30:11.485Z,60.82
2022-08-09T09:32:14.916Z,59.07
2022-08-09T09:34:18.513Z,58.96
2022-08-09T09:36:21.987Z,59.48
2022-08-09T09:38:38.334Z,58.89
2022-08-09T09:40:42.869Z,58.22
2022-08-09T09:42:54.960Z,59.18
2022-08-09T09:44:57.138Z,54.57
2022-08-09T09:47:04.389Z,56.58
2022-08-09T09:49:06.959Z,54.93
2022-08-09T09:51:11.653Z,54.22
2022-08-09T09:53:43.754Z,53.29
2022-08-09T09:55:57.632Z,53.03
2022-08-09T09:58:16.353Z,55.40
2022-08-09T10:00:22.060Z,54.85
2022-08-09T10:02:26.604Z,53.37
2022-08-09T10:04:30.824Z,52.87
2022-08-09T10:06:38.404Z,52.44
2022-08-09T10:08:55.035Z,50.63
2022-08-09T10:10:59.005Z,49.69
2022-08-09T10:13:00.924Z,49.30
2022-08-09T10:15:03.643Z,47.93
2022-08-09T10:17:51.170Z,48.12
2022-08-09T10:19:35.831Z,48.58
2022-08-09T10:21:45.359Z,48.19
2022-08-09T10:23:52.062Z,47.38
2022-08-09T10:26:06.553Z,47.08
2022-08-09T10:28:12.260Z,47.25
2022-08-09T10:30:57.905Z,46.04
2022-08-09T10:32:48.382Z,45.02
2022-08-09T10:34:49.974Z,46.80
2022-08-09T10:36:51.635Z,45.99
2022-08-09T10:38:56.725Z,46.64
2022-08-09T10:41:01.073Z,48.06
2022-08-09T10:43:04.734Z,47.19
2022-08-09T10:45:11.848Z,46.92
2022-08-09T10:48:10.163Z,47.16
2022-08-09T10:49:51.456Z,46.93
2022-08-09T10:51:58.863Z,47.27
2022-08-09T10:54:04.792Z,46.56
2022-08-09T10:56:22.611Z,44.07
2022-08-09T10:58:31.203Z,43.66
2022-08-09T11:00:41.769Z,44.45
2022-08-09T11:03:12.077Z,44.02
2022-08-09T11:05:24.900Z,44.32
2022-08-09T11:07:58.324Z,42.43
2022-08-09T11:09:56.205Z,42.89
2022-08-09T11:12:11.326Z,42.26
2022-08-09T11:14:28.887Z,42.67
2022-08-09T11:16:37.736Z,41.72
2022-08-09T11:18:42.585Z,41.44
2022-08-09T11:20:46.629Z,42.08
2022-08-09T11:22:58.469Z,42.32
2022-08-09T11:25:08.451Z,41.56
2022-08-09T11:28:02.962Z,40.46
2022-08-09T11:30:04.861Z,40.31
2022-08-09T11:32:08.148Z,41.00
2022-08-09T11:34:10.465Z,40.56
2022-08-09T11:36:11.978Z,41.27
2022-08-09T11:38:34.781Z,41.30
2022-08-09T11:40:38.106Z,40.46
2022-08-09T11:42:40.376Z,40.87
2022-08-09T11:44:45.066Z,40.56
2022-08-09T11:46:54.315Z,40.34
2022-08-09T11:48:58.450Z,40.20
2022-08-09T11:52:48.453Z,40.28
2022-08-09T11:53:58.409Z,40.68
2022-08-09T11:55:51.950Z,39.81
2022-08-09T11:58:00.373Z,40.35
2022-08-09T12:00:04.603Z,40.52
2022-08-09T12:02:17.518Z,39.78
2022-08-09T12:04:32.214Z,39.89
2022-08-09T12:06:38.840Z,39.71
2022-08-09T12:08:55.394Z,38.07
2022-08-09T12:10:58.842Z,38.63
2022-08-09T12:13:03.685Z,39.12
2022-08-09T12:15:49.149Z,38.91
2022-08-09T12:17:48.967Z,38.46
2022-08-09T12:19:59.816Z,39.06
2022-08-09T12:22:01.984Z,38.88
2022-08-09T12:24:09.581Z,37.58
2022-08-09T12:26:12.953Z,36.70
2022-08-09T12:29:13.810Z,36.52
2022-08-09T12:30:49.108Z,36.00
2022-08-09T12:32:50.727Z,35.78
2022-08-09T12:34:52.258Z,35.58
2022-08-09T12:36:59.097Z,35.19
2022-08-09T12:39:17.917Z,34.65
2022-08-09T12:41:25.692Z,35.11
2022-08-09T12:44:05.910Z,35.68
2022-08-09T12:46:00.247Z,36.03
2022-08-09T12:48:02.387Z,36.31
2022-08-09T12:50:04.372Z,36.06
2022-08-09T12:52:06.543Z,36.36
2022-08-09T12:54:08.598Z,36.59
2022-08-09T12:56:43.559Z,36.17
2022-08-09T12:58:34.342Z,35.17
2022-08-09T13:00:44.813Z,34.49
2022-08-09T13:02:53.299Z,34.71
2022-08-09T13:05:02.409Z,35.04
2022-08-09T13:07:11.266Z,34.39
2022-08-09T13:09:15.459Z,34.15
2022-08-09T13:11:24.305Z,34.66
2022-08-09T13:14:01.032Z,34.23
2022-08-09T13:15:52.751Z,31.30
2022-08-09T13:18:05.468Z,30.00
2022-08-09T13:20:18.684Z,28.76
2022-08-09T13:22:37.482Z,29.47
2022-08-09T13:24:54.216Z,29.51
2022-08-09T13:26:56.260Z,28.89
2022-08-09T13:29:04.645Z,28.20
2022-08-09T13:32:19.953Z,26.70
2022-08-09T13:33:35.974Z,26.87
2022-08-09T13:36:24.163Z,26.07
2022-08-09T13:38:17.605Z,26.75
2022-08-09T13:41:50.637Z,27.75
2022-08-09T13:42:58.222Z,28.13
2022-08-09T13:44:59.779Z,27.33
2022-08-09T13:47:27.704Z,27.07
2022-08-09T13:49:24.584Z,25.31
2022-08-09T13:51:39.758Z,24.63
2022-08-09T13:53:53.896Z,23.54
2022-08-09T13:55:56.554Z,24.45
2022-08-09T13:57:59.671Z,23.75
2022-08-09T14:00:01.534Z,23.04
2022-08-09T14:02:04.609Z,23.39
2022-08-09T14:04:11.590Z,22.35
2022-08-09T14:06:19.390Z,22.07
2022-08-09T14:08:28.309Z,21.25
2022-08-09T14:10:45.942Z,21.44
2022-08-09T14:12:48.139Z,22.26
2022-08-09T14:14:53.750Z,23.30
2022-08-09T14:16:55.594Z,23.44
2022-08-09T14:18:59.510Z,24.01
2022-08-09T14:21:01.217Z,23.66
2022-08-09T14:23:04.390Z,21.45
2022-08-09T14:25:10.101Z,22.27
2022-08-09T14:27:20.489Z,22.89
2022-08-09T14:29:25.726Z,20.19
2022-08-09T14:31:52.233Z,22.14
2022-08-09T14:33:55.317Z,22.20
2022-08-09T14:35:58.228Z,21.62
2022-08-09T14:38:19.119Z,20.61
2022-08-09T14:40:38.800Z,21.56
2022-08-09T14:42:42.595Z,20.79
2022-08-09T14:44:48.997Z,21.34
2022-08-09T14:47:26.333Z,21.03
2022-08-09T14:49:23.698Z,21.64
2022-08-09T14:51:26.757Z,19.22
2022-08-09T14:53:31.140Z,19.67
2022-08-09T14:55:33.179Z,19.20
2022-08-09T14:57:43.277Z,20.50
2022-08-09T14:59:48.572Z,19.99
2022-08-09T15:01:50.811Z,20.50
2022-08-09T15:03:53.224Z,21.65
2022-08-09T15:06:01.568Z,20.75
2022-08-09T15:08:10.276Z,22.30
2022-08-09T15:10:14.369Z,20.74
2022-08-09T15:12:17.664Z,22.16
2022-08-09T15:14:20.527Z,22.96
2022-08-09T15:16:22.030Z,21.57
2022-08-09T15:18:24.284Z,20.55
2022-08-09T15:22:00.915Z,21.38
2022-08-09T15:22:49.190Z,19.27
2022-08-09T15:25:06.863Z,19.71
2022-08-09T15:27:08.468Z,21.72
2022-08-09T15:30:55.823Z,22.76
2022-08-09T15:31:41.064Z,22.42
2022-08-09T15:34:32.673Z,21.59
2022-08-09T15:36:05.861Z,21.61
2022-08-09T15:38:11.567Z,21.88
2022-08-09T15:40:16.142Z,21.23
2022-08-09T15:42:21.978Z,20.12
2022-08-09T15:44:23.534Z,19.94
2022-08-09T15:46:32.395Z,21.00
2022-08-09T15:48:36.912Z,21.03
2022-08-09T15:50:43.616Z,21.87
2022-08-09T15:52:55.035Z,20.60
2022-08-09T15:55:08.340Z,20.34
2022-08-09T15:57:11.239Z,21.14
2022-08-09T15:59:13.444Z,21.69
2022-08-09T16:01:15.044Z,21.70
2022-08-09T16:03:26.696Z,20.97
2022-08-09T16:05:53.590Z,21.67
2022-08-09T16:07:56.448Z,20.25
2022-08-09T16:10:04.908Z,20.79
2022-08-09T16:12:07.060Z,20.37
2022-08-09T16:14:14.426Z,21.53
2022-08-09T16:16:26.216Z,19.67
2022-08-09T16:18:30.124Z,19.92
2022-08-09T16:20:31.698Z,20.40
2022-08-09T16:22:33.853Z,19.35
2022-08-09T16:24:36.909Z,19.37
2022-08-09T16:26:38.512Z,21.54
2022-08-09T16:28:42.664Z,21.66
2022-08-09T16:30:58.738Z,21.80
2022-08-09T16:33:00.661Z,22.04
2022-08-09T16:35:03.290Z,21.42
2022-08-09T16:37:05.423Z,20.60
2022-08-09T16:39:09.461Z,22.36
2022-08-09T16:41:16.696Z,21.36
2022-08-09T16:43:20.967Z,22.46
2022-08-09T16:45:22.671Z,21.50
2022-08-09T16:48:41.195Z,21.42
2022-08-09T16:50:29.272Z,21.99
2022-08-09T16:52:08.493Z,22.59
2022-08-09T16:54:33.992Z,21.15
2022-08-09T16:56:34.247Z,21.11
2022-08-09T16:58:36.820Z,21.45
2022-08-09T17:00:42.899Z,22.41
2022-08-09T17:02:46.340Z,23.80
2022-08-09T17:04:47.965Z,21.42
2022-08-09T17:08:46.138Z,21.38
2022-08-09T17:09:45.159Z,20.28
2022-08-09T17:11:41.864Z,19.29
2022-08-09T17:13:45.125Z,19.90
2022-08-09T17:16:00.039Z,21.80
2022-08-09T17:18:06.049Z,20.59
2022-08-09T17:20:30.265Z,20.65
2022-08-09T17:22:31.214Z,19.90
2022-08-09T17:24:37.674Z,19.92
2022-08-09T17:26:53.224Z,20.27
2022-08-09T17:28:55.097Z,20.33
2022-08-09T17:30:56.604Z,19.78
2022-08-09T17:33:01.368Z,19.65
2022-08-09T17:35:11.892Z,20.37
2022-08-09T17:37:19.622Z,20.46
2022-08-09T17:39:24.816Z,20.68
2022-08-09T17:41:39.057Z,21.22
2022-08-09T17:43:41.361Z,21.94
2022-08-09T17:46:01.764Z,21.94
2022-08-09T17:48:05.541Z,22.17
2022-08-09T17:50:13.951Z,21.06
2022-08-09T17:52:22.513Z,21.39
2022-08-09T17:54:28.128Z,21.55
2022-08-09T17:56:32.571Z,22.11
2022-08-09T17:58:37.679Z,23.04
2022-08-09T18:00:48.166Z,21.95
2022-08-09T18:02:50.408Z,21.83
2022-08-09T18:05:00.242Z,21.14
2022-08-09T18:07:07.676Z,22.13
2022-08-09T18:09:10.887Z,21.88
2022-08-09T18:11:18.066Z,21.98
2022-08-09T18:13:43.326Z,23.70
2022-08-09T18:16:04.907Z,22.87
2022-08-09T18:18:08.557Z,23.27
2022-08-09T18:21:00.102Z,22.43
2022-08-09T18:22:51.254Z,22.73
2022-08-09T18:24:54.365Z,23.19
2022-08-09T18:26:55.886Z,24.28
2022-08-09T18:30:35.698Z,24.91
2022-08-09T18:31:24.743Z,24.58
2022-08-09T18:33:34.267Z,25.57
2022-08-09T18:35:48.083Z,25.51
2022-08-09T18:37:57.425Z,26.18
2022-08-09T18:40:00.431Z,26.94
2022-08-09T18:42:02.165Z,27.05
2022-08-09T18:44:10.624Z,28.10
2022-08-09T18:46:47.038Z,28.47
2022-08-09T18:48:36.354Z,27.64
2022-08-09T18:50:37.856Z,28.38
2022-08-09T18:52:39.544Z,29.54
2022-08-09T18:54:52.200Z,30.25
2022-08-09T18:56:55.939Z,29.81
2022-08-09T18:58:57.461Z,30.11
2022-08-09T19:01:02.577Z,31.13
2022-08-09T19:03:04.469Z,31.40
2022-08-09T19:05:19.519Z,32.50
2022-08-09T19:07:28.073Z,34.13
2022-08-09T19:10:12.810Z,34.39
2022-08-09T19:11:56.188Z,34.73
2022-08-09T19:14:00.338Z,35.77
2022-08-09T19:16:06.937Z,36.54
2022-08-09T19:18:17.179Z,37.16
2022-08-09T19:20:18.945Z,37.72
2022-08-09T19:22:24.199Z,38.00
2022-08-09T19:24:33.161Z,38.47
2022-08-09T19:26:41.416Z,38.75
2022-08-09T19:28:51.772Z,39.91
2022-08-09T19:30:53.307Z,39.89
2022-08-09T19:32:55.148Z,40.26
2022-08-09T19:34:57.438Z,40.35
2022-08-09T19:36:58.992Z,41.23
2022-08-09T19:39:03.458Z,41.62
2022-08-09T19:41:07.211Z,41.99
2022-08-09T19:43:16.357Z,41.64
2022-08-09T19:45:38.941Z,42.29
2022-08-09T19:47:42.007Z,42.35
2022-08-09T19:50:09.442Z,42.56
2022-08-09T19:52:06.443Z,43.10
2022-08-09T19:54:08.415Z,43.55
2022-08-09T19:56:15.652Z,43.76
2022-08-09T19:58:17.339Z,43.96
2022-08-09T20:00:32.865Z,44.26
2022-08-09T20:04:11.715Z,44.37
2022-08-09T20:04:56.638Z,44.33
2022-08-09T20:06:59.468Z,44.92
2022-08-09T20:09:05.539Z,45.62
2022-08-09T20:11:07.819Z,46.36
2022-08-09T20:13:09.348Z,45.42
2022-08-09T20:16:34.641Z,46.00
2022-08-09T20:17:41.551Z,46.84
2022-08-09T20:19:54.101Z,47.29
2022-08-09T20:21:59.925Z,46.77
2022-08-09T20:24:02.296Z,47.36
2022-08-09T20:26:04.179Z,48.49
2022-08-09T20:28:08.484Z,48.51
2022-08-09T20:30:14.781Z,48.77
2022-08-09T20:32:41.934Z,48.54
2022-08-09T20:34:42.571Z,48.48
2022-08-09T20:36:45.233Z,49.08
2022-08-09T20:40:16.499Z,50.16
2022-08-09T20:41:08.379Z,50.62
2022-08-09T20:43:24.299Z,50.33
2022-08-09T20:45:57.546Z,50.55
2022-08-09T20:47:48.814Z,52.06
2022-08-09T20:49:51.860Z,52.78
2022-08-09T20:51:53.422Z,51.77
2022-08-09T20:53:55.989Z,53.08
2022-08-09T20:56:02.430Z,52.98
2022-08-09T20:58:07.764Z,52.95
2022-08-09T21:00:31.120Z,53.11
2022-08-09T21:02:34.189Z,53.86
2022-08-09T21:05:50.730Z,53.71
2022-08-09T21:06:58.837Z,53.82
2022-08-09T21:09:00.458Z,54.60
2022-08-09T21:11:02.772Z,54.14
2022-08-09T21:13:08.032Z,54.01
2022-08-09T21:15:15.475Z,54.48
2022-08-09T21:18:22.257Z,55.08
2022-08-09T21:20:18.833Z,54.62
2022-08-09T21:22:02.811Z,54.71
2022-08-09T21:24:04.725Z,55.63
2022-08-09T21:26:07.209Z,55.29
2022-08-09T21:28:12.259Z,55.29
2022-08-09T21:30:18.804Z,56.35
2022-08-09T21:32:20.445Z,56.55
2022-08-09T21:34:34.988Z,57.62
2022-08-09T21:36:36.571Z,57.46
2022-08-09T21:38:39.435Z,57.00
2022-08-09T21:40:40.975Z,60.05
2022-08-09T21:42:42.498Z,60.46
2022-08-09T21:44:46.236Z,60.23
2022-08-09T21:46:47.737Z,61.98
2022-08-09T21:48:50.008Z,60.92
2022-08-09T21:50:51.631Z,61.36
2022-08-09T21:52:53.166Z,62.70
2022-08-09T21:55:03.181Z,64.24
2022-08-09T21:57:06.157Z,64.26
2022-08-09T21:59:27.044Z,63.68
2022-08-09T22:01:58.634Z,63.07
2022-08-09T22:04:01.024Z,64.64
2022-08-09T22:06:02.555Z,64.70
2022-08-09T22:08:04.546Z,63.97
2022-08-09T22:10:08.136Z,65.28
2022-08-09T22:12:18.614Z,67.35
2022-08-09T22:14:27.132Z,66.98
2022-08-09T22:16:33.005Z,68.09
2022-08-09T22:18:38.426Z,67.75
2022-08-09T22:20:55.269Z,67.02
2022-08-09T22:22:57.310Z,66.95
2022-08-09T22:26:08.196Z,68.05
2022-08-09T22:27:21.720Z,67.07
2022-08-09T22:29:32.280Z,67.78
2022-08-09T22:31:56.340Z,70.46
2022-08-09T22:33:58.650Z,70.28
2022-08-09T22:36:03.709Z,70.71
2022-08-09T22:38:06.921Z,70.23
2022-08-09T22:40:10.210Z,70.95
2022-08-09T22:42:21.967Z,72.61
2022-08-09T22:44:32.686Z,73.68
2022-08-09T22:48:17.101Z,73.12
2022-08-09T22:48:56.155Z,72.06
2022-08-09T22:51:10.455Z,74.21
2022-08-09T22:53:12.500Z,72.26
2022-08-09T22:55:22.871Z,74.88
2022-08-09T22:57:31.708Z,74.18
2022-08-09T22:59:55.146Z,73.62
2022-08-09T23:01:58.118Z,73.78
2022-08-09T23:04:04.340Z,76.35
2022-08-09T23:06:07.973Z,76.13
2022-08-09T23:08:29.299Z,74.59
2022-08-09T23:10:31.706Z,75.38
2022-08-09T23:12:33.245Z,74.17
2022-08-09T23:14:41.847Z,76.14
2022-08-09T23:16:45.378Z,77.19
2022-08-09T23:18:46.910Z,77.21
2022-08-09T23:20:48.451Z,76.50
2022-08-09T23:22:49.998Z,76.52
2022-08-09T23:24:51.612Z,78.44
2022-08-09T23:26:53.100Z,77.14
2022-08-09T23:28:54.616Z,77.10
2022-08-09T23:30:56.258Z,78.39
2022-08-09T23:32:59.119Z,79.39
2022-08-09T23:35:00.655Z,79.83
2022-08-09T23:37:02.409Z,81.66
2022-08-09T23:39:04.661Z,81.17
2022-08-09T23:41:06.238Z,82.52
2022-08-09T23:43:08.004Z,80.97
2022-08-09T23:45:10.033Z,83.01
2022-08-09T23:47:31.521Z,83.92
2022-08-09T23:49:34.439Z,80.99
2022-08-09T23:51:35.955Z,83.33
2022-08-09T23:53:37.650Z,81.95
2022-08-09T23:55:40.059Z,82.25
2022-08-09T23:58:02.718Z,86.07
